sensor_id;sensor_type;location;lat;lon;timestamp;temperature;humidity
66102;HTU21D;52883;51.094;5.880;2022-09-27T00:01:04;10.36;118.99
66102;HTU21D;52883;51.094;5.880;2022-09-27T00:03:31;10.37;118.99
66102;HTU21D;52883;51.094;5.880;2022-09-27T00:08:26;10.34;118.99
66102;HTU21D;52883;51.094;5.880;2022-09-27T00:11:04;10.35;118.99
66102;HTU21D;52883;51.094;5.880;2022-09-27T00:13:30;10.33;118.99
66102;HTU21D;52883;51.094;5.880;2022-09-27T00:16:01;10.30;118.99
66102;HTU21D;52883;51.094;5.880;2022-09-27T00:18:30;10.30;118.99
66102;HTU21D;52883;51.094;5.880;2022-09-27T00:21:04;10.31;118.99
66102;HTU21D;52883;51.094;5.880;2022-09-27T00:23:30;10.31;118.99
66102;HTU21D;52883;51.094;5.880;2022-09-27T00:25:58;10.30;118.99
66102;HTU21D;52883;51.094;5.880;2022-09-27T00:28:25;10.31;118.99
66102;HTU21D;52883;51.094;5.880;2022-09-27T00:30:51;10.33;118.99
66102;HTU21D;52883;51.094;5.880;2022-09-27T00:33:17;10.33;118.99
66102;HTU21D;52883;51.094;5.880;2022-09-27T00:35:43;10.28;118.99
66102;HTU21D;52883;51.094;5.880;2022-09-27T00:38:09;10.26;118.99
66102;HTU21D;52883;51.094;5.880;2022-09-27T00:40:35;10.23;118.99
66102;HTU21D;52883;51.094;5.880;2022-09-27T00:43:01;10.25;118.99
66102;HTU21D;52883;51.094;5.880;2022-09-27T00:45:26;10.27;118.99
66102;HTU21D;52883;51.094;5.880;2022-09-27T00:48:00;10.28;118.99
66102;HTU21D;52883;51.094;5.880;2022-09-27T00:50:36;10.28;118.99
66102;HTU21D;52883;51.094;5.880;2022-09-27T00:53:27;10.30;118.99
66102;HTU21D;52883;51.094;5.880;2022-09-27T00:56:00;10.31;118.99
66102;HTU21D;52883;51.094;5.880;2022-09-27T00:58:36;10.33;118.99
66102;HTU21D;52883;51.094;5.880;2022-09-27T01:01:06;10.31;118.99
66102;HTU21D;52883;51.094;5.880;2022-09-27T01:06:25;10.33;118.99
66102;HTU21D;52883;51.094;5.880;2022-09-27T01:08:50;10.31;118.99
66102;HTU21D;52883;51.094;5.880;2022-09-27T01:23:08;10.16;118.99
66102;HTU21D;52883;51.094;5.880;2022-09-27T01:25:57;10.15;118.99
66102;HTU21D;52883;51.094;5.880;2022-09-27T01:31:30;10.11;118.99
66102;HTU21D;52883;51.094;5.880;2022-09-27T01:34:03;10.10;118.99
66102;HTU21D;52883;51.094;5.880;2022-09-27T01:37:05;10.08;118.99
66102;HTU21D;52883;51.094;5.880;2022-09-27T01:45:25;10.00;118.99
66102;HTU21D;52883;51.094;5.880;2022-09-27T01:48:19;9.97;118.99
66102;HTU21D;52883;51.094;5.880;2022-09-27T01:50:56;9.97;118.99
66102;HTU21D;52883;51.094;5.880;2022-09-27T01:53:30;9.95;118.99
66102;HTU21D;52883;51.094;5.880;2022-09-27T01:56:21;9.96;118.99
66102;HTU21D;52883;51.094;5.880;2022-09-27T01:59:13;9.95;118.99
66102;HTU21D;52883;51.094;5.880;2022-09-27T02:01:49;9.94;118.99
66102;HTU21D;52883;51.094;5.880;2022-09-27T02:04:22;9.91;118.99
66102;HTU21D;52883;51.094;5.880;2022-09-27T02:07:21;9.91;118.99
66102;HTU21D;52883;51.094;5.880;2022-09-27T02:10:00;9.90;118.99
66102;HTU21D;52883;51.094;5.880;2022-09-27T02:12:51;9.86;118.99
66102;HTU21D;52883;51.094;5.880;2022-09-27T02:15:19;9.83;118.99
66102;HTU21D;52883;51.094;5.880;2022-09-27T02:18:16;9.83;118.99
66102;HTU21D;52883;51.094;5.880;2022-09-27T02:20:54;9.83;118.99
66102;HTU21D;52883;51.094;5.880;2022-09-27T02:23:37;9.81;118.99
66102;HTU21D;52883;51.094;5.880;2022-09-27T02:26:21;9.77;118.99
66102;HTU21D;52883;51.094;5.880;2022-09-27T02:29:05;9.72;118.99
66102;HTU21D;52883;51.094;5.880;2022-09-27T02:31:39;9.71;118.99
66102;HTU21D;52883;51.094;5.880;2022-09-27T02:34:19;9.65;118.99
66102;HTU21D;52883;51.094;5.880;2022-09-27T02:36:46;9.59;118.99
66102;HTU21D;52883;51.094;5.880;2022-09-27T02:39:13;9.50;118.99
66102;HTU21D;52883;51.094;5.880;2022-09-27T02:41:39;9.46;118.99
66102;HTU21D;52883;51.094;5.880;2022-09-27T02:44:09;9.38;118.99
66102;HTU21D;52883;51.094;5.880;2022-09-27T02:49:59;9.34;118.99
66102;HTU21D;52883;51.094;5.880;2022-09-27T02:53:35;9.32;118.99
66102;HTU21D;52883;51.094;5.880;2022-09-27T02:56:26;9.29;118.99
66102;HTU21D;52883;51.094;5.880;2022-09-27T02:59:33;9.26;118.99
66102;HTU21D;52883;51.094;5.880;2022-09-27T03:02:59;9.31;118.99
66102;HTU21D;52883;51.094;5.880;2022-09-27T03:05:32;9.31;118.99
66102;HTU21D;52883;51.094;5.880;2022-09-27T03:08:00;9.32;118.99
66102;HTU21D;52883;51.094;5.880;2022-09-27T03:10:27;9.30;118.99
66102;HTU21D;52883;51.094;5.880;2022-09-27T03:12:55;9.31;118.99
66102;HTU21D;52883;51.094;5.880;2022-09-27T03:15:21;9.34;118.99
66102;HTU21D;52883;51.094;5.880;2022-09-27T03:17:59;9.33;118.99
66102;HTU21D;52883;51.094;5.880;2022-09-27T03:20:43;9.33;118.99
66102;HTU21D;52883;51.094;5.880;2022-09-27T03:23:19;9.30;118.99
66102;HTU21D;52883;51.094;5.880;2022-09-27T03:25:45;9.27;118.99
66102;HTU21D;52883;51.094;5.880;2022-09-27T03:28:12;9.24;118.99
66102;HTU21D;52883;51.094;5.880;2022-09-27T03:30:39;9.19;118.99
66102;HTU21D;52883;51.094;5.880;2022-09-27T03:33:07;9.14;118.99
66102;HTU21D;52883;51.094;5.880;2022-09-27T03:35:42;9.07;118.99
66102;HTU21D;52883;51.094;5.880;2022-09-27T03:38:09;9.03;118.99
66102;HTU21D;52883;51.094;5.880;2022-09-27T03:40:35;8.98;118.99
66102;HTU21D;52883;51.094;5.880;2022-09-27T03:43:02;8.95;118.99
66102;HTU21D;52883;51.094;5.880;2022-09-27T03:45:29;8.93;118.99
66102;HTU21D;52883;51.094;5.880;2022-09-27T03:47:58;8.94;118.99
66102;HTU21D;52883;51.094;5.880;2022-09-27T03:50:24;8.96;118.99
66102;HTU21D;52883;51.094;5.880;2022-09-27T03:52:50;8.98;118.99
66102;HTU21D;52883;51.094;5.880;2022-09-27T03:55:15;9.01;118.99
66102;HTU21D;52883;51.094;5.880;2022-09-27T03:57:45;9.02;118.99
66102;HTU21D;52883;51.094;5.880;2022-09-27T04:00:13;9.03;118.99
66102;HTU21D;52883;51.094;5.880;2022-09-27T04:02:40;9.04;118.99
66102;HTU21D;52883;51.094;5.880;2022-09-27T04:05:21;9.04;118.99
66102;HTU21D;52883;51.094;5.880;2022-09-27T04:07:49;9.00;118.99
66102;HTU21D;52883;51.094;5.880;2022-09-27T04:10:16;9.00;118.99
66102;HTU21D;52883;51.094;5.880;2022-09-27T04:12:43;8.97;118.99
66102;HTU21D;52883;51.094;5.880;2022-09-27T04:15:09;8.93;118.99
66102;HTU21D;52883;51.094;5.880;2022-09-27T04:17:48;8.88;118.99
66102;HTU21D;52883;51.094;5.880;2022-09-27T04:20:32;8.86;118.99
66102;HTU21D;52883;51.094;5.880;2022-09-27T04:23:01;8.87;118.99
66102;HTU21D;52883;51.094;5.880;2022-09-27T04:25:27;8.87;118.99
66102;HTU21D;52883;51.094;5.880;2022-09-27T04:27:56;8.86;118.99
66102;HTU21D;52883;51.094;5.880;2022-09-27T04:30:22;8.83;118.99
66102;HTU21D;52883;51.094;5.880;2022-09-27T04:33:13;8.83;118.99
66102;HTU21D;52883;51.094;5.880;2022-09-27T04:36:00;8.83;118.99
66102;HTU21D;52883;51.094;5.880;2022-09-27T04:39:09;8.83;118.99
66102;HTU21D;52883;51.094;5.880;2022-09-27T04:41:38;8.83;118.99
66102;HTU21D;52883;51.094;5.880;2022-09-27T04:44:04;8.85;118.99
66102;HTU21D;52883;51.094;5.880;2022-09-27T04:46:31;8.86;118.99
66102;HTU21D;52883;51.094;5.880;2022-09-27T04:49:00;8.87;118.99
66102;HTU21D;52883;51.094;5.880;2022-09-27T04:51:28;8.87;118.99
66102;HTU21D;52883;51.094;5.880;2022-09-27T04:53:56;8.89;118.99
66102;HTU21D;52883;51.094;5.880;2022-09-27T04:56:25;8.90;118.99
66102;HTU21D;52883;51.094;5.880;2022-09-27T04:58:51;8.94;118.99
66102;HTU21D;52883;51.094;5.880;2022-09-27T05:01:18;8.97;118.99
66102;HTU21D;52883;51.094;5.880;2022-09-27T05:03:55;9.02;118.99
66102;HTU21D;52883;51.094;5.880;2022-09-27T05:06:27;9.03;118.99
66102;HTU21D;52883;51.094;5.880;2022-09-27T05:08:56;9.04;118.99
66102;HTU21D;52883;51.094;5.880;2022-09-27T05:11:28;9.05;118.99
66102;HTU21D;52883;51.094;5.880;2022-09-27T05:14:12;9.04;118.99
66102;HTU21D;52883;51.094;5.880;2022-09-27T05:16:53;9.00;118.99
66102;HTU21D;52883;51.094;5.880;2022-09-27T05:19:25;8.98;118.99
66102;HTU21D;52883;51.094;5.880;2022-09-27T05:22:09;8.94;118.99
66102;HTU21D;52883;51.094;5.880;2022-09-27T05:24:34;8.93;118.99
66102;HTU21D;52883;51.094;5.880;2022-09-27T05:27:02;8.92;118.99
66102;HTU21D;52883;51.094;5.880;2022-09-27T05:29:33;8.91;118.99
66102;HTU21D;52883;51.094;5.880;2022-09-27T05:32:17;8.92;118.99
66102;HTU21D;52883;51.094;5.880;2022-09-27T05:34:45;8.93;118.99
66102;HTU21D;52883;51.094;5.880;2022-09-27T05:37:11;8.93;118.99
66102;HTU21D;52883;51.094;5.880;2022-09-27T05:39:39;8.90;118.99
66102;HTU21D;52883;51.094;5.880;2022-09-27T05:42:04;8.92;118.99
66102;HTU21D;52883;51.094;5.880;2022-09-27T05:44:32;8.93;118.99
66102;HTU21D;52883;51.094;5.880;2022-09-27T05:47:00;8.94;118.99
66102;HTU21D;52883;51.094;5.880;2022-09-27T05:49:28;8.95;118.99
66102;HTU21D;52883;51.094;5.880;2022-09-27T05:51:54;8.95;118.99
66102;HTU21D;52883;51.094;5.880;2022-09-27T05:54:20;8.94;118.99
66102;HTU21D;52883;51.094;5.880;2022-09-27T05:56:46;9.00;118.99
66102;HTU21D;52883;51.094;5.880;2022-09-27T05:59:31;9.00;118.99
66102;HTU21D;52883;51.094;5.880;2022-09-27T06:02:15;9.01;118.99
66102;HTU21D;52883;51.094;5.880;2022-09-27T06:04:57;9.02;118.99
66102;HTU21D;52883;51.094;5.880;2022-09-27T06:07:41;9.03;118.99
66102;HTU21D;52883;51.094;5.880;2022-09-27T06:10:18;9.04;118.99
66102;HTU21D;52883;51.094;5.880;2022-09-27T06:12:44;9.04;118.99
66102;HTU21D;52883;51.094;5.880;2022-09-27T06:15:28;9.05;118.99
66102;HTU21D;52883;51.094;5.880;2022-09-27T06:17:54;9.09;118.99
66102;HTU21D;52883;51.094;5.880;2022-09-27T06:20:20;9.16;118.99
66102;HTU21D;52883;51.094;5.880;2022-09-27T06:22:46;9.20;118.99
66102;HTU21D;52883;51.094;5.880;2022-09-27T06:25:12;9.23;118.99
66102;HTU21D;52883;51.094;5.880;2022-09-27T06:27:56;9.25;118.99
66102;HTU21D;52883;51.094;5.880;2022-09-27T06:30:26;9.26;118.99
66102;HTU21D;52883;51.094;5.880;2022-09-27T06:32:56;9.30;118.99
66102;HTU21D;52883;51.094;5.880;2022-09-27T06:35:29;9.35;118.99
66102;HTU21D;52883;51.094;5.880;2022-09-27T06:37:56;9.45;118.99
66102;HTU21D;52883;51.094;5.880;2022-09-27T06:40:22;9.56;118.99
66102;HTU21D;52883;51.094;5.880;2022-09-27T06:43:07;9.64;118.99
66102;HTU21D;52883;51.094;5.880;2022-09-27T06:45:52;9.66;118.99
66102;HTU21D;52883;51.094;5.880;2022-09-27T06:48:39;9.65;118.99
66102;HTU21D;52883;51.094;5.880;2022-09-27T06:51:13;9.64;118.99
66102;HTU21D;52883;51.094;5.880;2022-09-27T06:53:39;9.65;118.99
66102;HTU21D;52883;51.094;5.880;2022-09-27T06:56:05;9.62;118.99
66102;HTU21D;52883;51.094;5.880;2022-09-27T06:58:42;9.67;118.99
66102;HTU21D;52883;51.094;5.880;2022-09-27T07:01:52;9.79;118.99
66102;HTU21D;52883;51.094;5.880;2022-09-27T07:04:31;9.85;118.99
66102;HTU21D;52883;51.094;5.880;2022-09-27T07:07:28;9.93;118.99
66102;HTU21D;52883;51.094;5.880;2022-09-27T07:09:54;10.01;118.99
66102;HTU21D;52883;51.094;5.880;2022-09-27T07:12:20;10.10;118.99
66102;HTU21D;52883;51.094;5.880;2022-09-27T07:14:47;10.21;118.99
66102;HTU21D;52883;51.094;5.880;2022-09-27T07:17:16;10.22;118.99
66102;HTU21D;52883;51.094;5.880;2022-09-27T07:19:43;10.30;118.99
66102;HTU21D;52883;51.094;5.880;2022-09-27T07:22:10;10.35;118.99
66102;HTU21D;52883;51.094;5.880;2022-09-27T07:24:36;10.39;118.99
66102;HTU21D;52883;51.094;5.880;2022-09-27T07:27:03;10.48;118.99
66102;HTU21D;52883;51.094;5.880;2022-09-27T07:29:29;10.62;118.99
66102;HTU21D;52883;51.094;5.880;2022-09-27T07:31:55;10.71;118.99
66102;HTU21D;52883;51.094;5.880;2022-09-27T07:34:21;10.78;118.99
66102;HTU21D;52883;51.094;5.880;2022-09-27T07:36:46;10.82;118.99
66102;HTU21D;52883;51.094;5.880;2022-09-27T07:39:13;10.86;118.99
66102;HTU21D;52883;51.094;5.880;2022-09-27T07:41:38;10.87;118.99
66102;HTU21D;52883;51.094;5.880;2022-09-27T07:44:07;10.87;118.99
66102;HTU21D;52883;51.094;5.880;2022-09-27T07:46:38;10.92;118.99
66102;HTU21D;52883;51.094;5.880;2022-09-27T07:49:16;10.95;118.99
66102;HTU21D;52883;51.094;5.880;2022-09-27T07:52:02;11.01;118.99
66102;HTU21D;52883;51.094;5.880;2022-09-27T07:54:52;11.23;118.99
66102;HTU21D;52883;51.094;5.880;2022-09-27T07:57:29;11.44;118.99
66102;HTU21D;52883;51.094;5.880;2022-09-27T07:59:57;11.58;118.99
66102;HTU21D;52883;51.094;5.880;2022-09-27T08:02:22;11.74;118.99
66102;HTU21D;52883;51.094;5.880;2022-09-27T08:04:49;11.82;118.99
66102;HTU21D;52883;51.094;5.880;2022-09-27T08:07:15;11.86;118.99
66102;HTU21D;52883;51.094;5.880;2022-09-27T08:09:44;11.88;118.99
66102;HTU21D;52883;51.094;5.880;2022-09-27T08:12:11;11.91;118.99
66102;HTU21D;52883;51.094;5.880;2022-09-27T08:14:37;12.04;118.99
66102;HTU21D;52883;51.094;5.880;2022-09-27T08:17:03;12.18;118.99
66102;HTU21D;52883;51.094;5.880;2022-09-27T08:19:35;12.49;118.99
66102;HTU21D;52883;51.094;5.880;2022-09-27T08:22:20;12.85;118.99
66102;HTU21D;52883;51.094;5.880;2022-09-27T08:24:54;13.03;118.99
66102;HTU21D;52883;51.094;5.880;2022-09-27T08:27:31;13.19;118.99
66102;HTU21D;52883;51.094;5.880;2022-09-27T08:29:58;13.17;118.99
66102;HTU21D;52883;51.094;5.880;2022-09-27T08:32:24;13.04;118.99
66102;HTU21D;52883;51.094;5.880;2022-09-27T08:34:50;12.89;118.99
66102;HTU21D;52883;51.094;5.880;2022-09-27T08:37:16;12.82;118.99
66102;HTU21D;52883;51.094;5.880;2022-09-27T08:39:41;12.79;118.99
66102;HTU21D;52883;51.094;5.880;2022-09-27T08:42:37;12.69;118.99
66102;HTU21D;52883;51.094;5.880;2022-09-27T08:47:58;12.51;118.99
66102;HTU21D;52883;51.094;5.880;2022-09-27T08:53:15;12.37;118.99
66102;HTU21D;52883;51.094;5.880;2022-09-27T08:55:46;12.38;118.99
66102;HTU21D;52883;51.094;5.880;2022-09-27T08:58:24;12.35;118.99
66102;HTU21D;52883;51.094;5.880;2022-09-27T09:00:53;12.28;118.99
66102;HTU21D;52883;51.094;5.880;2022-09-27T09:03:27;12.12;118.99
66102;HTU21D;52883;51.094;5.880;2022-09-27T09:14:46;12.07;118.99
66102;HTU21D;52883;51.094;5.880;2022-09-27T09:20:45;12.02;118.99
66102;HTU21D;52883;51.094;5.880;2022-09-27T09:23:32;12.02;118.99
66102;HTU21D;52883;51.094;5.880;2022-09-27T09:28:55;11.96;118.99
66102;HTU21D;52883;51.094;5.880;2022-09-27T09:31:40;11.96;118.99
66102;HTU21D;52883;51.094;5.880;2022-09-27T09:34:50;11.98;118.99
66102;HTU21D;52883;51.094;5.880;2022-09-27T09:37:23;12.08;118.99
66102;HTU21D;52883;51.094;5.880;2022-09-27T09:40:06;12.28;118.99
66102;HTU21D;52883;51.094;5.880;2022-09-27T09:42:58;12.51;118.99
66102;HTU21D;52883;51.094;5.880;2022-09-27T09:46:02;12.74;118.99
66102;HTU21D;52883;51.094;5.880;2022-09-27T09:48:41;12.95;118.99
66102;HTU21D;52883;51.094;5.880;2022-09-27T09:51:16;13.03;118.99
66102;HTU21D;52883;51.094;5.880;2022-09-27T09:56:28;13.01;118.99
66102;HTU21D;52883;51.094;5.880;2022-09-27T09:59:00;12.84;118.99
66102;HTU21D;52883;51.094;5.880;2022-09-27T10:01:38;12.70;118.99
66102;HTU21D;52883;51.094;5.880;2022-09-27T10:04:05;12.72;118.99
66102;HTU21D;52883;51.094;5.880;2022-09-27T10:06:31;12.77;118.99
66102;HTU21D;52883;51.094;5.880;2022-09-27T10:08:59;12.89;118.99
66102;HTU21D;52883;51.094;5.880;2022-09-27T10:11:44;13.09;118.99
66102;HTU21D;52883;51.094;5.880;2022-09-27T10:14:26;13.30;118.99
66102;HTU21D;52883;51.094;5.880;2022-09-27T10:17:03;13.46;118.99
66102;HTU21D;52883;51.094;5.880;2022-09-27T10:19:35;13.54;118.99
66102;HTU21D;52883;51.094;5.880;2022-09-27T10:22:24;13.62;118.99
66102;HTU21D;52883;51.094;5.880;2022-09-27T10:24:56;13.71;118.99
66102;HTU21D;52883;51.094;5.880;2022-09-27T10:27:43;13.92;118.99
66102;HTU21D;52883;51.094;5.880;2022-09-27T10:30:27;13.94;118.99
66102;HTU21D;52883;51.094;5.880;2022-09-27T10:32:59;14.01;118.99
66102;HTU21D;52883;51.094;5.880;2022-09-27T10:35:46;14.04;118.99
66102;HTU21D;52883;51.094;5.880;2022-09-27T10:38:34;13.96;118.99
66102;HTU21D;52883;51.094;5.880;2022-09-27T10:41:36;13.73;118.99
66102;HTU21D;52883;51.094;5.880;2022-09-27T10:46:47;13.54;118.99
66102;HTU21D;52883;51.094;5.880;2022-09-27T10:49:38;13.95;118.99
66102;HTU21D;52883;51.094;5.880;2022-09-27T10:52:21;14.35;118.99
66102;HTU21D;52883;51.094;5.880;2022-09-27T10:54:56;14.55;118.99
66102;HTU21D;52883;51.094;5.880;2022-09-27T10:57:26;14.26;118.99
66102;HTU21D;52883;51.094;5.880;2022-09-27T11:00:25;13.50;118.99
66102;HTU21D;52883;51.094;5.880;2022-09-27T11:02:55;13.20;118.99
66102;HTU21D;52883;51.094;5.880;2022-09-27T11:07:58;13.68;118.99
66102;HTU21D;52883;51.094;5.880;2022-09-27T11:10:37;14.15;118.99
66102;HTU21D;52883;51.094;5.880;2022-09-27T11:21:58;14.82;118.99
66102;HTU21D;52883;51.094;5.880;2022-09-27T11:24:47;14.98;118.99
66102;HTU21D;52883;51.094;5.880;2022-09-27T11:30:39;14.74;118.99
66102;HTU21D;52883;51.094;5.880;2022-09-27T11:36:52;13.95;118.99
66102;HTU21D;52883;51.094;5.880;2022-09-27T11:39:38;13.55;118.99
66102;HTU21D;52883;51.094;5.880;2022-09-27T11:48:17;12.87;118.99
66102;HTU21D;52883;51.094;5.880;2022-09-27T11:56:22;11.89;118.99
66102;HTU21D;52883;51.094;5.880;2022-09-27T12:01:50;11.73;118.99
66102;HTU21D;52883;51.094;5.880;2022-09-27T12:09:34;11.83;118.99
66102;HTU21D;52883;51.094;5.880;2022-09-27T12:12:17;11.87;118.99
66102;HTU21D;52883;51.094;5.880;2022-09-27T12:15:02;11.86;118.99
66102;HTU21D;52883;51.094;5.880;2022-09-27T12:17:34;11.77;118.99
66102;HTU21D;52883;51.094;5.880;2022-09-27T12:20:22;11.85;118.99
66102;HTU21D;52883;51.094;5.880;2022-09-27T12:23:05;11.99;118.99
66102;HTU21D;52883;51.094;5.880;2022-09-27T12:25:58;12.25;118.99
66102;HTU21D;52883;51.094;5.880;2022-09-27T12:36:34;13.32;118.99
66102;HTU21D;52883;51.094;5.880;2022-09-27T12:39:24;13.55;118.99
66102;HTU21D;52883;51.094;5.880;2022-09-27T12:44:47;13.58;118.99
66102;HTU21D;52883;51.094;5.880;2022-09-27T12:50:31;13.77;118.99
66102;HTU21D;52883;51.094;5.880;2022-09-27T12:53:29;13.81;118.99
66102;HTU21D;52883;51.094;5.880;2022-09-27T12:56:28;14.04;118.99
66102;HTU21D;52883;51.094;5.880;2022-09-27T12:58:59;14.09;118.99
66102;HTU21D;52883;51.094;5.880;2022-09-27T13:01:42;14.25;118.99
66102;HTU21D;52883;51.094;5.880;2022-09-27T13:04:45;14.48;118.99
66102;HTU21D;52883;51.094;5.880;2022-09-27T13:12:36;14.55;118.99
66102;HTU21D;52883;51.094;5.880;2022-09-27T13:15:15;14.50;118.99
66102;HTU21D;52883;51.094;5.880;2022-09-27T13:30:53;14.43;118.99
66102;HTU21D;52883;51.094;5.880;2022-09-27T13:33:50;14.38;118.99
66102;HTU21D;52883;51.094;5.880;2022-09-27T13:36:25;14.24;118.99
66102;HTU21D;52883;51.094;5.880;2022-09-27T13:47:03;14.17;118.99
66102;HTU21D;52883;51.094;5.880;2022-09-27T13:49:39;14.18;118.99
66102;HTU21D;52883;51.094;5.880;2022-09-27T13:54:53;14.14;118.99
66102;HTU21D;52883;51.094;5.880;2022-09-27T13:57:39;14.01;118.99
66102;HTU21D;52883;51.094;5.880;2022-09-27T14:00:21;13.90;118.99
66102;HTU21D;52883;51.094;5.880;2022-09-27T14:02:54;13.83;118.99
66102;HTU21D;52883;51.094;5.880;2022-09-27T14:05:40;13.68;118.99
66102;HTU21D;52883;51.094;5.880;2022-09-27T14:10:54;13.07;118.99
66102;HTU21D;52883;51.094;5.880;2022-09-27T14:13:23;12.70;118.99
66102;HTU21D;52883;51.094;5.880;2022-09-27T14:16:04;12.34;118.99
66102;HTU21D;52883;51.094;5.880;2022-09-27T14:18:33;11.94;118.99
66102;HTU21D;52883;51.094;5.880;2022-09-27T14:21:19;11.57;118.99
66102;HTU21D;52883;51.094;5.880;2022-09-27T14:27:38;11.07;118.99
66102;HTU21D;52883;51.094;5.880;2022-09-27T14:30:25;11.01;118.99
66102;HTU21D;52883;51.094;5.880;2022-09-27T14:33:30;11.01;118.99
66102;HTU21D;52883;51.094;5.880;2022-09-27T14:36:01;11.05;118.99
66102;HTU21D;52883;51.094;5.880;2022-09-27T14:38:48;11.37;118.99
66102;HTU21D;52883;51.094;5.880;2022-09-27T14:41:22;11.53;118.99
66102;HTU21D;52883;51.094;5.880;2022-09-27T14:43:49;11.73;118.99
66102;HTU21D;52883;51.094;5.880;2022-09-27T14:46:30;11.85;118.99
66102;HTU21D;52883;51.094;5.880;2022-09-27T14:48:56;12.02;118.99
66102;HTU21D;52883;51.094;5.880;2022-09-27T14:51:29;12.21;118.99
66102;HTU21D;52883;51.094;5.880;2022-09-27T14:53:58;12.28;118.99
66102;HTU21D;52883;51.094;5.880;2022-09-27T14:56:36;12.20;118.99
66102;HTU21D;52883;51.094;5.880;2022-09-27T14:59:39;12.15;118.99
66102;HTU21D;52883;51.094;5.880;2022-09-27T15:02:17;12.07;118.99
66102;HTU21D;52883;51.094;5.880;2022-09-27T15:04:47;11.98;118.99
66102;HTU21D;52883;51.094;5.880;2022-09-27T15:07:13;11.92;118.99
66102;HTU21D;52883;51.094;5.880;2022-09-27T15:09:43;11.85;118.99
66102;HTU21D;52883;51.094;5.880;2022-09-27T15:12:15;11.74;118.99
66102;HTU21D;52883;51.094;5.880;2022-09-27T15:14:47;11.67;118.99
66102;HTU21D;52883;51.094;5.880;2022-09-27T15:17:19;11.62;118.99
66102;HTU21D;52883;51.094;5.880;2022-09-27T15:20:03;11.54;118.99
66102;HTU21D;52883;51.094;5.880;2022-09-27T15:22:43;11.44;118.99
66102;HTU21D;52883;51.094;5.880;2022-09-27T15:25:29;11.33;118.99
66102;HTU21D;52883;51.094;5.880;2022-09-27T15:28:16;11.24;118.99
66102;HTU21D;52883;51.094;5.880;2022-09-27T15:31:01;11.22;118.99
66102;HTU21D;52883;51.094;5.880;2022-09-27T15:33:29;11.16;118.99
66102;HTU21D;52883;51.094;5.880;2022-09-27T15:36:02;11.15;118.99
66102;HTU21D;52883;51.094;5.880;2022-09-27T15:38:39;11.23;118.99
66102;HTU21D;52883;51.094;5.880;2022-09-27T15:41:17;11.31;118.99
66102;HTU21D;52883;51.094;5.880;2022-09-27T15:43:48;11.41;118.99
66102;HTU21D;52883;51.094;5.880;2022-09-27T15:46:41;11.45;118.99
66102;HTU21D;52883;51.094;5.880;2022-09-27T15:51:45;11.32;118.99
66102;HTU21D;52883;51.094;5.880;2022-09-27T15:54:11;11.28;118.99
66102;HTU21D;52883;51.094;5.880;2022-09-27T15:56:40;11.24;118.99
66102;HTU21D;52883;51.094;5.880;2022-09-27T15:59:26;11.19;118.99
66102;HTU21D;52883;51.094;5.880;2022-09-27T16:01:58;11.16;118.99
66102;HTU21D;52883;51.094;5.880;2022-09-27T16:04:24;11.15;118.99
66102;HTU21D;52883;51.094;5.880;2022-09-27T16:06:51;11.17;118.99
66102;HTU21D;52883;51.094;5.880;2022-09-27T16:09:19;11.13;118.99
66102;HTU21D;52883;51.094;5.880;2022-09-27T16:11:47;11.15;118.99
66102;HTU21D;52883;51.094;5.880;2022-09-27T16:14:14;11.15;118.99
66102;HTU21D;52883;51.094;5.880;2022-09-27T16:16:50;11.13;118.99
66102;HTU21D;52883;51.094;5.880;2022-09-27T16:19:17;11.19;118.99
66102;HTU21D;52883;51.094;5.880;2022-09-27T16:21:42;11.17;118.99
66102;HTU21D;52883;51.094;5.880;2022-09-27T16:24:11;11.16;118.99
66102;HTU21D;52883;51.094;5.880;2022-09-27T16:26:37;11.10;118.99
66102;HTU21D;52883;51.094;5.880;2022-09-27T16:29:04;11.03;118.99
66102;HTU21D;52883;51.094;5.880;2022-09-27T16:31:33;10.98;118.99
66102;HTU21D;52883;51.094;5.880;2022-09-27T16:34:00;10.95;118.99
66102;HTU21D;52883;51.094;5.880;2022-09-27T16:36:26;10.94;118.99
66102;HTU21D;52883;51.094;5.880;2022-09-27T16:38:52;10.93;118.99
66102;HTU21D;52883;51.094;5.880;2022-09-27T16:41:20;10.86;118.99
66102;HTU21D;52883;51.094;5.880;2022-09-27T16:43:47;10.83;118.99
66102;HTU21D;52883;51.094;5.880;2022-09-27T16:46:14;10.77;118.99
66102;HTU21D;52883;51.094;5.880;2022-09-27T16:48:44;10.75;118.99
66102;HTU21D;52883;51.094;5.880;2022-09-27T16:51:18;10.68;118.99
66102;HTU21D;52883;51.094;5.880;2022-09-27T16:54:04;10.60;118.99
66102;HTU21D;52883;51.094;5.880;2022-09-27T16:56:32;10.58;118.99
66102;HTU21D;52883;51.094;5.880;2022-09-27T16:58:59;10.55;118.99
66102;HTU21D;52883;51.094;5.880;2022-09-27T17:01:27;10.54;118.99
66102;HTU21D;52883;51.094;5.880;2022-09-27T17:03:53;10.50;118.99
66102;HTU21D;52883;51.094;5.880;2022-09-27T17:06:19;10.45;118.99
66102;HTU21D;52883;51.094;5.880;2022-09-27T17:08:45;10.44;118.99
66102;HTU21D;52883;51.094;5.880;2022-09-27T17:11:13;10.39;118.99
66102;HTU21D;52883;51.094;5.880;2022-09-27T17:13:41;10.36;118.99
66102;HTU21D;52883;51.094;5.880;2022-09-27T17:16:07;10.30;118.99
66102;HTU21D;52883;51.094;5.880;2022-09-27T17:18:33;10.24;118.99
66102;HTU21D;52883;51.094;5.880;2022-09-27T17:21:03;10.16;118.99
66102;HTU21D;52883;51.094;5.880;2022-09-27T17:23:30;10.10;118.99
66102;HTU21D;52883;51.094;5.880;2022-09-27T17:28:31;9.92;118.99
66102;HTU21D;52883;51.094;5.880;2022-09-27T17:31:07;9.85;118.99
66102;HTU21D;52883;51.094;5.880;2022-09-27T17:33:39;9.78;118.99
66102;HTU21D;52883;51.094;5.880;2022-09-27T17:36:15;9.76;118.99
66102;HTU21D;52883;51.094;5.880;2022-09-27T17:38:43;9.75;118.99
66102;HTU21D;52883;51.094;5.880;2022-09-27T17:41:12;9.71;118.99
66102;HTU21D;52883;51.094;5.880;2022-09-27T17:43:40;9.71;118.99
66102;HTU21D;52883;51.094;5.880;2022-09-27T17:46:16;9.74;118.99
66102;HTU21D;52883;51.094;5.880;2022-09-27T17:48:42;9.72;118.99
66102;HTU21D;52883;51.094;5.880;2022-09-27T17:51:26;9.67;118.99
66102;HTU21D;52883;51.094;5.880;2022-09-27T17:53:54;9.67;118.99
66102;HTU21D;52883;51.094;5.880;2022-09-27T17:56:20;9.67;118.99
66102;HTU21D;52883;51.094;5.880;2022-09-27T17:58:52;9.66;118.99
66102;HTU21D;52883;51.094;5.880;2022-09-27T18:01:20;9.70;118.99
66102;HTU21D;52883;51.094;5.880;2022-09-27T18:03:46;9.76;118.99
66102;HTU21D;52883;51.094;5.880;2022-09-27T18:06:14;9.80;118.99
66102;HTU21D;52883;51.094;5.880;2022-09-27T18:08:40;9.83;118.99
66102;HTU21D;52883;51.094;5.880;2022-09-27T18:11:15;9.89;118.99
66102;HTU21D;52883;51.094;5.880;2022-09-27T18:13:42;9.93;118.99
66102;HTU21D;52883;51.094;5.880;2022-09-27T18:16:10;9.97;118.99
66102;HTU21D;52883;51.094;5.880;2022-09-27T18:18:38;9.96;118.99
66102;HTU21D;52883;51.094;5.880;2022-09-27T18:21:06;9.95;118.99